Time;durP1;ratioP1;P1;durP2;ratioP2;P2;SDS_P1;SDS_P2;PMS_P1;PMS_P2;Temp;Humidity;BMP_temperature;BMP_pressure;BME280_temperature;BME280_humidity;BME280_pressure;Samples;Min_cycle;Max_cycle;Signal;HPM_P1;HPM_P2
2022/01/28 00:00:37;;;;;;;80.25;34.80;;;-0.80;62.50;;;;;;5012595;28;20145;-71
2022/01/28 00:03:09;;;;;;;82.15;35.65;;;-0.80;62.40;;;;;;5024705;28;20580;-71
2022/01/28 00:05:37;;;;;;;101.78;39.65;;;-0.80;61.80;;;;;;5028706;28;20034;-71
2022/01/28 00:08:05;;;;;;;83.57;35.67;;;-0.80;62.40;;;;;;5039823;28;20427;-71
2022/01/28 00:10:33;;;;;;;118.90;45.70;;;-0.70;62.40;;;;;;5024489;28;20494;-71
2022/01/28 00:15:40;;;;;;;79.20;31.90;;;-0.70;62.50;;;;;;5011455;28;20045;-70
2022/01/28 00:18:41;;;;;;;52.05;23.35;;;-0.60;62.60;;;;;;5034273;28;20443;-71
2022/01/28 00:36:41;;;;;;;52.83;24.60;;;-0.60;62.80;;;;;;5017886;28;20045;-70
2022/01/28 00:39:42;;;;;;;71.22;30.15;;;-0.60;62.70;;;;;;5014493;28;20482;-70
2022/01/28 00:42:09;;;;;;;78.18;32.80;;;-0.60;62.80;;;;;;5029826;28;20053;-70
2022/01/28 00:44:35;;;;;;;;;;;-0.50;62.90;;;;;;5027880;28;20041;-71
2022/01/28 00:47:02;;;;;;;77.50;33.38;;;-0.50;62.70;;;;;;5013575;28;19921;-71
2022/01/28 00:49:28;;;;;;;76.97;34.35;;;-0.60;61.90;;;;;;5030649;28;20034;-71
2022/01/28 00:51:55;;;;;;;85.68;36.85;;;-0.50;62.00;;;;;;5031768;28;20036;-71
2022/01/28 00:54:21;;;;;;;81.43;35.28;;;-0.50;62.60;;;;;;5024422;28;20554;-70
2022/01/28 00:56:48;;;;;;;77.07;33.97;;;-0.50;62.60;;;;;;5034790;28;20037;-71
2022/01/28 00:59:14;;;;;;;79.35;35.03;;;-0.50;62.50;;;;;;5030733;28;20040;-70
2022/01/28 01:01:40;;;;;;;77.93;33.15;;;-0.50;62.70;;;;;;5013096;28;20041;-70
2022/01/28 01:04:06;;;;;;;75.53;35.30;;;-0.50;62.10;;;;;;5023029;28;20129;-70
2022/01/28 01:06:34;;;;;;;66.05;32.30;;;-0.50;62.80;;;;;;5014104;28;20068;-71
2022/01/28 01:09:00;;;;;;;68.65;29.92;;;-0.40;62.60;;;;;;5030196;28;20070;-71
2022/01/28 01:11:27;;;;;;;;;;;-0.40;62.70;;;;;;5033066;28;20033;-70
2022/01/28 01:13:54;;;;;;;74.05;32.08;;;-0.40;61.80;;;;;;5030594;28;19921;-71
2022/01/28 01:16:29;;;;;;;70.60;28.67;;;-0.40;62.20;;;;;;5044259;28;20126;-70
2022/01/28 01:24:18;;;;;;;63.78;30.80;;;-0.20;62.40;;;;;;5027163;28;20111;-71
2022/01/28 01:26:44;;;;;;;76.82;31.55;;;-0.20;62.20;;;;;;5013424;28;20045;-70
2022/01/28 01:29:13;;;;;;;;;;;-0.20;62.30;;;;;;5014935;28;20033;-71
2022/01/28 01:31:42;;;;;;;79.75;36.03;;;-0.10;62.20;;;;;;5021606;28;19921;-70
2022/01/28 01:34:13;;;;;;;139.23;51.47;;;-0.10;62.10;;;;;;5021277;28;20038;-70
2022/01/28 01:36:40;;;;;;;87.38;35.30;;;-0.10;62.30;;;;;;5014210;28;20057;-71
2022/01/28 01:39:10;;;;;;;51.58;26.20;;;-0.10;62.60;;;;;;5014449;28;20034;-71
2022/01/28 01:41:47;;;;;;;61.63;27.13;;;-0.10;62.60;;;;;;5038068;28;20038;-72
2022/01/28 01:47:15;;;;;;;60.63;28.23;;;0.00;62.90;;;;;;5024778;28;20037;-71
2022/01/28 01:52:26;;;;;;;71.53;32.35;;;-0.10;62.90;;;;;;5011163;28;20510;-71
2022/01/28 01:54:52;;;;;;;70.28;30.77;;;-0.10;63.20;;;;;;5030027;28;20536;-71
2022/01/28 01:57:18;;;;;;;;;;;-0.20;63.30;;;;;;5046850;28;20067;-70
2022/01/28 01:59:45;;;;;;;57.22;24.98;;;-0.20;63.50;;;;;;5018784;28;19921;-71
2022/01/28 02:02:11;;;;;;;45.30;22.75;;;-0.30;63.00;;;;;;5012731;28;20042;-70
2022/01/28 02:04:38;;;;;;;55.95;23.48;;;-0.40;63.20;;;;;;5026980;28;20444;-71
2022/01/28 02:07:05;;;;;;;54.20;25.25;;;-0.40;63.90;;;;;;5013488;28;20120;-71
2022/01/28 02:09:31;;;;;;;61.00;26.90;;;-0.40;64.10;;;;;;5029524;28;20494;-70
2022/01/28 02:11:57;;;;;;;53.42;25.52;;;-0.50;64.30;;;;;;5011987;28;20060;-70
2022/01/28 02:14:23;;;;;;;74.45;30.02;;;-0.60;64.30;;;;;;5013375;28;20042;-70
2022/01/28 02:16:49;;;;;;;63.97;27.73;;;-0.60;64.40;;;;;;5011910;28;20038;-71
2022/01/28 02:19:15;;;;;;;45.25;22.85;;;-0.60;64.40;;;;;;5011888;28;20042;-70
2022/01/28 02:21:47;;;;;;;45.75;23.23;;;-0.60;64.40;;;;;;5015168;28;20042;-71
2022/01/28 02:24:17;;;;;;;53.63;22.83;;;-0.70;64.50;;;;;;5031675;28;20415;-71
2022/01/28 02:26:43;;;;;;;46.58;20.73;;;-0.70;64.10;;;;;;5012311;28;20037;-70
2022/01/28 02:29:13;;;;;;;;;;;-0.70;64.60;;;;;;5013692;28;20034;-70
2022/01/28 02:31:41;;;;;;;40.00;16.90;;;-0.80;64.40;;;;;;5013392;28;19925;-71
2022/01/28 02:34:11;;;;;;;43.10;18.75;;;-0.80;64.30;;;;;;5028101;28;20052;-71
2022/01/28 02:36:38;;;;;;;42.50;19.67;;;-0.80;64.30;;;;;;5013838;28;20033;-71
2022/01/28 02:39:05;;;;;;;48.40;21.20;;;-0.90;64.40;;;;;;5013257;28;20515;-71
2022/01/28 02:41:36;;;;;;;46.08;22.17;;;-0.90;64.60;;;;;;5029217;28;20042;-70
2022/01/28 02:44:42;;;;;;;42.08;20.88;;;-1.00;64.60;;;;;;5012635;28;20067;-71
2022/01/28 02:47:13;;;;;;;48.75;23.70;;;-1.00;64.70;;;;;;5029846;28;20033;-70
2022/01/28 02:49:39;;;;;;;43.33;20.42;;;-1.00;64.60;;;;;;5021094;28;20099;-71
2022/01/28 02:52:07;;;;;;;48.78;22.15;;;-1.10;64.10;;;;;;5014819;28;20041;-70
2022/01/28 02:54:44;;;;;;;49.08;21.65;;;-1.10;64.10;;;;;;5027005;28;20160;-71
2022/01/28 02:57:10;;;;;;;43.10;20.58;;;-1.10;64.80;;;;;;5033749;28;20045;-70
2022/01/28 02:59:36;;;;;;;44.08;19.58;;;-1.10;64.90;;;;;;5012769;28;20038;-71
2022/01/28 03:02:02;;;;;;;40.63;18.55;;;-1.20;64.80;;;;;;5012868;28;20454;-71
2022/01/28 03:06:55;;;;;;;50.30;22.13;;;-1.20;65.00;;;;;;5011529;28;20037;-70
2022/01/28 03:09:21;;;;;;;50.63;22.45;;;-1.20;65.10;;;;;;5013116;28;20053;-71
2022/01/28 03:12:10;;;;;;;38.90;19.55;;;-1.20;65.20;;;;;;5022532;28;20087;-70
2022/01/28 03:14:48;;;;;;;32.47;14.73;;;-1.30;65.30;;;;;;5028380;28;20141;-70
2022/01/28 03:17:38;;;;;;;29.33;14.07;;;-1.30;65.50;;;;;;5015669;28;20129;-71
2022/01/28 03:22:48;;;;;;;33.65;16.35;;;-1.40;65.20;;;;;;5017424;28;20521;-71
2022/01/28 03:25:15;;;;;;;32.65;15.63;;;-1.30;65.40;;;;;;4994972;28;20034;-71
2022/01/28 03:30:09;;;;;;;34.28;16.05;;;-1.30;65.30;;;;;;5012995;28;20036;-70
2022/01/28 03:32:36;;;;;;;40.08;17.08;;;-1.30;65.20;;;;;;5012294;28;20529;-71
2022/01/28 03:35:04;;;;;;;37.40;18.92;;;-1.40;65.30;;;;;;5012181;28;20043;-71
2022/01/28 03:37:30;;;;;;;41.40;20.92;;;-1.30;65.40;;;;;;5011030;28;20394;-70
2022/01/28 03:39:56;;;;;;;;;;;-1.40;64.80;;;;;;5044279;28;20033;-71
2022/01/28 03:42:22;;;;;;;35.58;14.85;;;-1.40;65.30;;;;;;5013020;28;20011;-70
2022/01/28 03:44:49;;;;;;;31.73;14.25;;;-1.50;65.20;;;;;;5028657;28;20060;-71
2022/01/28 03:47:14;;;;;;;;;;;-1.60;65.10;;;;;;5028727;28;20037;-71
2022/01/28 03:49:41;;;;;;;30.00;13.20;;;-1.70;65.30;;;;;;5010526;28;19943;-70
2022/01/28 03:52:07;;;;;;;35.33;15.40;;;-1.80;65.20;;;;;;5016717;28;20494;-71
2022/01/28 03:54:33;;;;;;;32.92;16.50;;;-1.90;65.00;;;;;;5028423;28;20120;-70
2022/01/28 03:56:59;;;;;;;;;;;-1.90;65.20;;;;;;5012864;28;20518;-70
2022/01/28 03:59:25;;;;;;;31.00;16.20;;;-1.90;65.00;;;;;;5012273;28;19968;-71
2022/01/28 04:01:51;;;;;;;34.67;16.60;;;-1.90;65.10;;;;;;5029282;28;20041;-70
2022/01/28 04:12:36;;;;;;;39.05;17.75;;;-2.20;64.50;;;;;;4923244;28;20123;-70
2022/01/28 04:17:50;;;;;;;46.40;18.95;;;-2.30;64.60;;;;;;5015453;28;20096;-71
2022/01/28 04:20:17;;;;;;;41.47;19.95;;;-2.30;65.10;;;;;;5024525;28;20072;-71
2022/01/28 04:22:43;;;;;;;41.45;19.75;;;-2.30;65.00;;;;;;5044956;28;20087;-70
2022/01/28 04:25:10;;;;;;;34.40;18.15;;;-2.20;65.10;;;;;;5020613;28;20057;-71
2022/01/28 04:27:36;;;;;;;44.67;19.45;;;-2.20;65.20;;;;;;5026076;28;20041;-71
2022/01/28 04:30:03;;;;;;;;;;;-2.20;65.10;;;;;;5027081;28;20445;-71
2022/01/28 04:32:31;;;;;;;40.42;19.58;;;-2.20;64.80;;;;;;5031637;28;19925;-70
2022/01/28 04:34:58;;;;;;;48.15;19.90;;;-2.20;64.90;;;;;;5003884;28;20038;-70
2022/01/28 04:46:00;;;;;;;77.72;32.95;;;-2.20;65.20;;;;;;5028130;28;20053;-70
2022/01/28 04:56:16;;;;;;;58.85;25.25;;;-2.30;65.30;;;;;;5031871;28;20560;-70
2022/01/28 05:28:00;;;;;;;89.65;36.55;;;-2.50;65.30;;;;;;5013842;28;20152;-71
2022/01/28 05:30:26;;;;;;;85.75;37.28;;;-2.50;66.20;;;;;;5014703;28;20045;-71
2022/01/28 05:32:53;;;;;;;84.10;37.25;;;-2.40;65.30;;;;;;5014067;28;20034;-71
2022/01/28 05:35:19;;;;;;;81.15;33.70;;;-2.40;65.10;;;;;;5018614;28;20033;-71
2022/01/28 05:37:45;;;;;;;72.50;32.55;;;-2.40;65.00;;;;;;5023515;28;20037;-71
2022/01/28 05:40:11;;;;;;;71.20;32.35;;;-2.30;65.00;;;;;;5014232;28;20568;-71
2022/01/28 05:42:37;;;;;;;80.95;35.83;;;-2.40;64.20;;;;;;5030183;28;20049;-70
2022/01/28 05:45:04;;;;;;;72.18;34.25;;;-2.30;64.90;;;;;;5013929;28;20030;-71
2022/01/28 05:47:35;;;;;;;85.72;36.75;;;-2.30;64.70;;;;;;5012964;28;20325;-70
2022/01/28 05:50:02;;;;;;;83.90;36.00;;;-2.30;64.90;;;;;;5013387;28;20103;-71
2022/01/28 05:52:28;;;;;;;90.70;38.00;;;-2.30;64.90;;;;;;5012796;28;20057;-70
2022/01/28 05:54:54;;;;;;;67.78;30.25;;;-2.30;64.90;;;;;;5037594;28;20048;-71
2022/01/28 05:57:20;;;;;;;55.05;29.20;;;-2.30;65.00;;;;;;5031763;28;20025;-70
2022/01/28 05:59:47;;;;;;;69.28;28.33;;;-2.40;65.20;;;;;;5024122;28;20026;-70
2022/01/28 06:02:13;;;;;;;56.92;26.52;;;-2.40;65.30;;;;;;4999950;28;20038;-71
2022/01/28 06:04:39;;;;;;;47.85;25.52;;;-2.40;65.40;;;;;;5004738;28;20034;-70
2022/01/28 06:07:05;;;;;;;53.25;24.30;;;-2.30;65.50;;;;;;5029086;28;20121;-70
2022/01/28 06:09:32;;;;;;;;;;;-2.30;65.00;;;;;;5022306;28;20506;-70
2022/01/28 06:11:59;;;;;;;57.58;27.25;;;-2.30;65.40;;;;;;5029618;28;20183;-70
2022/01/28 06:14:25;;;;;;;83.15;32.67;;;-2.30;65.30;;;;;;5012744;28;20487;-70
2022/01/28 06:16:51;;;;;;;58.75;27.77;;;-2.10;65.30;;;;;;5022451;28;20034;-70
2022/01/28 06:19:17;;;;;;;61.65;28.80;;;-2.00;65.20;;;;;;5028753;28;20087;-70
2022/01/28 06:21:44;;;;;;;64.78;26.27;;;-2.00;65.00;;;;;;5026268;28;20464;-71
2022/01/28 06:24:10;;;;;;;62.97;29.08;;;-1.90;65.00;;;;;;5013174;28;20041;-70
2022/01/28 06:26:36;;;;;;;101.85;38.40;;;-1.80;64.90;;;;;;5013821;28;20038;-70
2022/01/28 06:29:02;;;;;;;;;;;-1.70;65.00;;;;;;5020036;28;20034;-71
2022/01/28 06:31:28;;;;;;;54.95;23.27;;;-1.70;64.80;;;;;;5022294;28;20029;-70
2022/01/28 06:33:54;;;;;;;48.15;21.08;;;-1.60;64.80;;;;;;5020068;28;20487;-71
2022/01/28 06:36:21;;;;;;;51.97;20.90;;;-1.50;65.00;;;;;;5013007;28;20026;-70
2022/01/28 06:39:06;;;;;;;43.03;18.95;;;-1.40;65.10;;;;;;5029883;28;20056;-71
2022/01/28 06:41:33;;;;;;;50.65;21.15;;;-1.30;65.00;;;;;;5019635;28;20046;-71
2022/01/28 06:43:59;;;;;;;;;;;-1.20;64.90;;;;;;5014014;28;20546;-70
2022/01/28 06:46:26;;;;;;;41.10;18.48;;;-1.10;64.60;;;;;;4995714;28;19929;-71
2022/01/28 06:48:52;;;;;;;44.20;20.17;;;-1.00;64.70;;;;;;5013567;28;20060;-70
2022/01/28 06:51:18;;;;;;;42.95;19.25;;;-1.00;64.70;;;;;;5023422;28;20040;-70
2022/01/28 06:53:44;;;;;;;41.00;20.02;;;-0.90;64.10;;;;;;5017749;28;20045;-71
2022/01/28 06:56:10;;;;;;;37.80;19.27;;;-0.80;64.70;;;;;;5013441;28;20478;-71
2022/01/28 06:58:37;;;;;;;46.83;20.45;;;-0.70;64.90;;;;;;5022241;28;20041;-71
2022/01/28 07:01:03;;;;;;;40.28;19.70;;;-0.70;64.80;;;;;;5017581;28;20117;-70
2022/01/28 07:03:29;;;;;;;44.30;18.42;;;-0.60;64.60;;;;;;5010440;28;20038;-71
2022/01/28 07:05:55;;;;;;;45.50;19.58;;;-0.50;64.80;;;;;;5013628;28;20064;-70
2022/01/28 07:08:23;;;;;;;42.25;21.05;;;-0.40;64.60;;;;;;5029101;28;20037;-70
2022/01/28 07:10:49;;;;;;;43.42;19.63;;;-0.40;64.60;;;;;;5014447;28;20406;-71
2022/01/28 07:13:16;;;;;;;40.83;20.17;;;-0.30;64.70;;;;;;5012879;28;20034;-70
2022/01/28 07:15:43;;;;;;;68.60;32.22;;;-0.30;64.60;;;;;;5028659;28;20083;-71
2022/01/28 07:18:09;;;;;;;55.90;29.33;;;-0.20;64.70;;;;;;5025746;28;20033;-70
2022/01/28 07:20:35;;;;;;;47.53;22.45;;;-0.10;64.70;;;;;;5012314;28;20038;-70
2022/01/28 07:23:02;;;;;;;47.92;21.25;;;-0.10;64.60;;;;;;5024817;28;20046;-70
2022/01/28 07:25:29;;;;;;;66.20;27.98;;;0.00;64.40;;;;;;5016595;28;20076;-70
2022/01/28 07:27:55;;;;;;;44.92;20.80;;;0.00;63.90;;;;;;5010227;28;20038;-72
2022/01/28 07:30:21;;;;;;;;;;;0.10;64.80;;;;;;5012929;28;20070;-70
2022/01/28 07:35:34;;;;;;;35.15;18.05;;;0.20;64.50;;;;;;5014545;28;20045;-70
2022/01/28 07:38:00;;;;;;;76.28;34.15;;;0.30;64.40;;;;;;5026456;28;20398;-70
2022/01/28 07:40:27;;;;;;;69.25;30.25;;;0.30;64.50;;;;;;5024556;28;20086;-71
2022/01/28 07:42:53;;;;;;;;;;;0.40;64.50;;;;;;5014050;28;20487;-70
2022/01/28 07:45:19;;;;;;;78.70;35.20;;;0.50;64.40;;;;;;5012172;28;19913;-70
2022/01/28 07:47:45;;;;;;;185.90;63.95;;;0.50;64.40;;;;;;5012824;28;20045;-70
2022/01/28 07:50:13;;;;;;;148.48;68.85;;;0.50;64.50;;;;;;5044436;28;20072;-70
2022/01/28 07:52:40;;;;;;;113.47;54.63;;;0.60;64.50;;;;;;5017072;28;20042;-70
2022/01/28 07:55:10;;;;;;;93.97;42.03;;;0.60;64.60;;;;;;5016071;28;20057;-70
2022/01/28 07:57:37;;;;;;;54.58;28.42;;;0.60;64.70;;;;;;5016190;28;20038;-70
2022/01/28 08:00:06;;;;;;;83.22;41.72;;;0.70;64.80;;;;;;5013971;28;20041;-71
2022/01/28 08:02:32;;;;;;;70.85;35.88;;;0.70;64.80;;;;;;5014596;28;20230;-71
2022/01/28 08:04:58;;;;;;;;;;;0.90;64.70;;;;;;5015275;28;20038;-71
2022/01/28 08:07:24;;;;;;;57.78;29.02;;;0.90;64.60;;;;;;5015987;28;19929;-71
2022/01/28 08:09:50;;;;;;;70.72;35.20;;;1.10;64.40;;;;;;5019162;28;20371;-70
2022/01/28 08:12:16;;;;;;;;;;;1.10;64.40;;;;;;5029431;28;20026;-70
2022/01/28 08:14:42;;;;;;;97.65;46.17;;;1.20;64.30;;;;;;5032638;28;19939;-71
2022/01/28 08:17:09;;;;;;;102.38;48.78;;;1.20;64.20;;;;;;5032187;28;20124;-70
2022/01/28 08:19:35;;;;;;;77.05;39.45;;;1.20;64.20;;;;;;5015466;28;20050;-70
2022/01/28 08:22:01;;;;;;;111.43;56.97;;;1.30;64.60;;;;;;5015717;28;20092;-71
2022/01/28 08:24:27;;;;;;;53.47;27.23;;;1.30;64.80;;;;;;5015634;28;20041;-70
2022/01/28 08:26:53;;;;;;;50.88;25.00;;;1.30;64.90;;;;;;5016642;28;20041;-71
2022/01/28 08:29:19;;;;;;;51.97;25.58;;;1.40;64.90;;;;;;5015420;28;20046;-71
2022/01/28 08:31:45;;;;;;;53.08;24.00;;;1.30;65.00;;;;;;5029909;28;20044;-70
2022/01/28 08:34:12;;;;;;;75.00;39.00;;;1.30;65.20;;;;;;5032730;28;20087;-70
2022/01/28 08:36:38;;;;;;;85.22;40.17;;;1.20;65.00;;;;;;5016661;28;20038;-70
2022/01/28 08:39:06;;;;;;;86.18;39.03;;;1.20;65.40;;;;;;5014620;28;20029;-70
2022/01/28 08:41:34;;;;;;;86.07;41.38;;;1.20;65.30;;;;;;5028939;28;20029;-71
2022/01/28 08:44:01;;;;;;;78.63;37.50;;;1.30;64.80;;;;;;5015512;28;20042;-71
2022/01/28 08:46:27;;;;;;;77.75;38.00;;;1.40;65.20;;;;;;5014100;28;20104;-70
2022/01/28 08:48:53;;;;;;;101.53;43.83;;;1.50;65.20;;;;;;5015453;28;20043;-71
2022/01/28 08:51:19;;;;;;;79.97;41.70;;;1.70;64.60;;;;;;5029157;28;20105;-71
2022/01/28 08:53:45;;;;;;;79.85;44.72;;;2.00;64.10;;;;;;5014078;28;20465;-71
2022/01/28 08:56:11;;;;;;;;;;;2.20;63.10;;;;;;5015741;28;20038;-70
2022/01/28 08:58:37;;;;;;;90.45;41.53;;;2.50;63.40;;;;;;5013956;28;19963;-70
2022/01/28 09:01:04;;;;;;;97.32;46.55;;;3.10;61.90;;;;;;5031551;28;20037;-71
2022/01/28 09:03:30;;;;;;;;;;;3.20;61.40;;;;;;5022721;28;20038;-70
2022/01/28 09:05:57;;;;;;;73.53;36.08;;;3.10;61.70;;;;;;5029628;28;19917;-71
2022/01/28 09:08:23;;;;;;;75.05;42.72;;;3.00;62.00;;;;;;5028581;28;20042;-70
2022/01/28 09:13:38;;;;;;;67.93;36.80;;;2.90;63.10;;;;;;5027371;28;20137;-71
2022/01/28 09:16:05;;;;;;;60.40;31.30;;;2.80;63.20;;;;;;5031091;28;20433;-71
2022/01/28 09:18:31;;;;;;;59.95;31.58;;;2.80;63.60;;;;;;5013327;28;20433;-72
2022/01/28 09:20:57;;;;;;;93.68;44.78;;;2.90;64.20;;;;;;4998200;28;20032;-70
2022/01/28 09:23:23;;;;;;;;;;;5.30;60.00;;;;;;5030760;28;20078;-72
2022/01/28 09:25:49;;;;;;;51.33;28.38;;;7.00;55.00;;;;;;5013025;28;19921;-71
2022/01/28 09:28:16;;;;;;;;;;;7.50;54.20;;;;;;5013788;28;20048;-72
2022/01/28 09:30:42;;;;;;;66.57;36.40;;;9.20;52.10;;;;;;5028573;28;19925;-72
2022/01/28 09:33:09;;;;;;;;;;;9.50;50.10;;;;;;5030728;28;20060;-72
2022/01/28 09:35:37;;;;;;;45.83;24.70;;;8.30;54.00;;;;;;5013030;28;19925;-72
2022/01/28 09:38:04;;;;;;;48.47;27.17;;;7.60;55.50;;;;;;5029450;28;20025;-72
2022/01/28 09:40:31;;;;;;;48.08;25.52;;;8.10;55.50;;;;;;5014130;28;20052;-72
2022/01/28 09:42:59;;;;;;;52.60;30.60;;;8.10;54.50;;;;;;4996776;28;20053;-72
2022/01/28 09:45:25;;;;;;;61.40;30.65;;;8.30;55.00;;;;;;4996727;28;20108;-71
2022/01/28 09:47:55;;;;;;;54.70;29.20;;;8.30;53.70;;;;;;5014578;28;20030;-72
2022/01/28 09:50:39;;;;;;;45.58;25.15;;;7.70;55.40;;;;;;5027857;28;20443;-71
2022/01/28 09:53:05;;;;;;;54.33;25.75;;;7.60;57.00;;;;;;5025388;28;20048;-70
2022/01/28 09:55:32;;;;;;;47.65;26.83;;;7.90;56.80;;;;;;5013829;28;20046;-70
2022/01/28 09:58:00;;;;;;;49.35;25.67;;;8.10;56.00;;;;;;5019597;28;20383;-71
2022/01/28 10:00:28;;;;;;;54.53;32.67;;;9.00;54.30;;;;;;5000663;28;20025;-71
2022/01/28 10:03:15;;;;;;;54.95;31.55;;;9.30;52.80;;;;;;5028943;28;20128;-71
2022/01/28 10:06:01;;;;;;;38.00;18.73;;;9.30;52.40;;;;;;5022032;28;20133;-72
2022/01/28 10:08:28;;;;;;;43.58;21.17;;;9.50;51.80;;;;;;5024212;28;20034;-72
2022/01/28 10:11:16;;;;;;;37.08;18.95;;;9.20;52.20;;;;;;5019284;28;20042;-72
2022/01/28 10:13:54;;;;;;;36.13;18.00;;;9.40;52.10;;;;;;5021326;28;20057;-71
2022/01/28 10:16:39;;;;;;;27.10;12.77;;;10.30;49.50;;;;;;5012133;28;20058;-71
2022/01/28 10:19:26;;;;;;;33.10;15.75;;;10.20;48.70;;;;;;4994743;28;20117;-71
2022/01/28 10:21:53;;;;;;;40.10;17.83;;;9.60;49.80;;;;;;5029630;28;20485;-72
2022/01/28 10:24:24;;;;;;;38.13;17.38;;;9.20;51.60;;;;;;5012866;28;20071;-71
2022/01/28 10:27:09;;;;;;;36.22;17.52;;;9.50;51.60;;;;;;5045157;28;20030;-72
2022/01/28 10:30:04;;;;;;;44.65;21.77;;;11.20;48.30;;;;;;5010799;28;20041;-71
2022/01/28 10:32:30;;;;;;;43.17;20.75;;;12.00;45.50;;;;;;5014886;28;20529;-71
2022/01/28 10:34:57;;;;;;;57.50;23.60;;;11.70;46.40;;;;;;5019606;28;20041;-72
2022/01/28 10:37:28;;;;;;;50.45;23.05;;;12.70;44.70;;;;;;5021440;28;20042;-72
2022/01/28 10:40:14;;;;;;;33.60;16.60;;;13.40;41.90;;;;;;5010780;28;20462;-71
2022/01/28 10:42:50;;;;;;;33.92;14.18;;;13.10;43.30;;;;;;5011821;28;20564;-72
2022/01/28 10:45:24;;;;;;;28.92;15.27;;;12.70;42.80;;;;;;5027488;28;20072;-71
2022/01/28 10:48:09;;;;;;;35.13;15.38;;;11.70;45.20;;;;;;5028457;28;20399;-71
2022/01/28 10:50:38;;;;;;;39.55;18.98;;;11.70;45.90;;;;;;5011459;28;20664;-71
2022/01/28 10:53:26;;;;;;;37.97;19.10;;;12.50;43.90;;;;;;5027689;28;20124;-72
2022/01/28 10:55:54;;;;;;;30.75;15.00;;;12.30;44.30;;;;;;5011325;28;20064;-71
2022/01/28 10:58:39;;;;;;;33.50;17.83;;;12.00;44.20;;;;;;5012895;28;20422;-71
2022/01/28 11:01:05;;;;;;;34.45;16.48;;;11.60;45.40;;;;;;5012575;28;20409;-71
2022/01/28 11:03:31;;;;;;;;;;;12.10;45.20;;;;;;4995647;28;20425;-71
2022/01/28 11:06:00;;;;;;;30.98;16.00;;;12.40;44.10;;;;;;5030611;28;19924;-72
2022/01/28 11:08:31;;;;;;;33.47;15.57;;;12.10;42.90;;;;;;5026131;28;20036;-72
2022/01/28 11:10:58;;;;;;;34.42;16.88;;;12.00;43.80;;;;;;5014323;28;20033;-72
2022/01/28 11:13:25;;;;;;;37.45;16.98;;;12.80;42.60;;;;;;5025211;28;20137;-71
2022/01/28 11:15:51;;;;;;;;;;;13.70;41.00;;;;;;5011864;28;20491;-72
2022/01/28 11:18:18;;;;;;;31.58;15.95;;;14.90;38.90;;;;;;5011189;28;19924;-73
2022/01/28 11:21:06;;;;;;;37.47;18.55;;;15.20;37.10;;;;;;5011494;28;20036;-72
2022/01/28 11:24:04;;;;;;;34.33;16.73;;;14.80;37.80;;;;;;5017331;28;20041;-71
2022/01/28 11:27:07;;;;;;;;;;;14.70;38.30;;;;;;5030335;28;20037;-71
2022/01/28 11:29:33;;;;;;;30.90;15.38;;;14.10;38.60;;;;;;5014077;28;20402;-71
2022/01/28 11:32:17;;;;;;;27.98;14.35;;;13.60;40.00;;;;;;5027576;28;20053;-73
2022/01/28 11:35:10;;;;;;;29.70;14.40;;;14.20;38.50;;;;;;5010808;28;20045;-73
2022/01/28 11:37:37;;;;;;;31.90;16.52;;;14.20;37.90;;;;;;5026712;28;20410;-71
2022/01/28 11:40:23;;;;;;;30.50;15.25;;;13.60;38.30;;;;;;5010967;28;20040;-72
2022/01/28 11:42:49;;;;;;;28.20;13.80;;;13.60;39.00;;;;;;5010857;28;20045;-73
2022/01/28 11:45:15;;;;;;;;;;;13.80;38.20;;;;;;5011651;28;20037;-73
2022/01/28 11:48:00;;;;;;;34.17;15.48;;;14.60;37.50;;;;;;5016358;28;19975;-72
2022/01/28 11:50:26;;;;;;;29.17;15.20;;;14.00;37.30;;;;;;5022552;28;20045;-73
2022/01/28 11:52:55;;;;;;;29.70;14.68;;;13.50;38.40;;;;;;5010908;28;20038;-71
2022/01/28 11:55:24;;;;;;;30.42;14.80;;;13.00;38.80;;;;;;5034712;28;20065;-71
2022/01/28 11:57:54;;;;;;;29.67;14.80;;;13.50;38.40;;;;;;5021637;28;20034;-73
2022/01/28 12:00:43;;;;;;;31.58;15.40;;;14.30;37.20;;;;;;5012070;28;20044;-73
2022/01/28 12:03:25;;;;;;;28.75;14.68;;;14.50;36.90;;;;;;4995416;28;20125;-72
2022/01/28 12:06:10;;;;;;;30.25;14.48;;;14.10;37.50;;;;;;5026033;28;20121;-71
2022/01/28 12:08:39;;;;;;;31.50;15.35;;;13.90;37.60;;;;;;4995469;28;20522;-73
2022/01/28 12:11:08;;;;;;;40.40;20.48;;;13.90;37.40;;;;;;5026483;28;20048;-72
2022/01/28 12:14:03;;;;;;;31.73;16.83;;;13.80;38.10;;;;;;5010848;28;20093;-72
2022/01/28 12:16:34;;;;;;;50.78;23.88;;;13.60;38.40;;;;;;5011896;28;20100;-72
2022/01/28 12:19:02;;;;;;;44.28;19.67;;;13.60;38.40;;;;;;5025539;28;20540;-71
2022/01/28 12:22:24;;;;;;;35.78;17.08;;;14.00;38.20;;;;;;5012304;28;20087;-71
2022/01/28 12:24:51;;;;;;;32.60;15.95;;;15.40;36.40;;;;;;5019352;28;20037;-71
2022/01/28 12:27:19;;;;;;;31.48;15.73;;;15.80;35.50;;;;;;5019551;28;20046;-72
2022/01/28 12:29:50;;;;;;;33.50;16.52;;;15.60;35.50;;;;;;5012308;28;20037;-71
2022/01/28 12:32:35;;;;;;;32.97;16.38;;;15.40;34.60;;;;;;5010585;28;20086;-72
2022/01/28 12:35:03;;;;;;;40.35;20.98;;;15.20;35.70;;;;;;5010512;28;20096;-71
2022/01/28 12:37:36;;;;;;;61.90;28.88;;;15.10;36.50;;;;;;5013966;28;20045;-71
2022/01/28 12:40:13;;;;;;;58.88;27.60;;;15.60;36.00;;;;;;5015390;28;20045;-73
2022/01/28 12:42:40;;;;;;;47.00;26.05;;;16.90;33.80;;;;;;5014416;28;20042;-71
2022/01/28 12:45:06;;;;;;;46.03;25.80;;;17.00;32.70;;;;;;5014602;28;20033;-71
2022/01/28 12:47:34;;;;;;;43.42;21.73;;;17.00;32.80;;;;;;5029975;28;20076;-72
2022/01/28 12:50:05;;;;;;;83.88;38.40;;;17.20;33.30;;;;;;5027529;28;20034;-72
2022/01/28 12:52:33;;;;;;;35.88;17.20;;;17.50;33.30;;;;;;5044958;28;20512;-72
2022/01/28 12:54:59;;;;;;;28.83;13.43;;;18.90;31.30;;;;;;5014914;28;20050;-72
2022/01/28 12:57:25;;;;;;;23.33;12.30;;;20.90;29.20;;;;;;5047030;28;20390;-72
2022/01/28 12:59:53;;;;;;;28.85;15.50;;;21.90;27.00;;;;;;5012938;28;20487;-71
2022/01/28 13:02:20;;;;;;;29.13;13.95;;;22.80;25.30;;;;;;5032231;28;20137;-71
2022/01/28 13:10:34;;;;;;;29.90;17.25;;;25.40;23.30;;;;;;5013724;28;20462;-73
2022/01/28 13:13:09;;;;;;;27.35;13.90;;;25.40;23.20;;;;;;5013474;28;20128;-72
2022/01/28 13:15:37;;;;;;;33.28;16.27;;;25.20;22.40;;;;;;5019926;28;22111;-71
2022/01/28 13:18:07;;;;;;;29.80;15.25;;;24.60;22.70;;;;;;5024601;28;20928;-73
2022/01/28 13:20:39;;;;;;;55.60;23.88;;;22.80;23.90;;;;;;5011807;28;20037;-72
2022/01/28 13:23:06;;;;;;;49.00;21.95;;;20.80;26.10;;;;;;5025142;28;20034;-72
2022/01/28 13:25:32;;;;;;;68.50;27.88;;;19.10;28.00;;;;;;5014409;28;20132;-71
2022/01/28 13:28:04;;;;;;;56.78;25.83;;;18.00;29.60;;;;;;5014620;28;20042;-72
2022/01/28 13:30:37;;;;;;;48.70;23.40;;;17.10;30.80;;;;;;5038075;28;20044;-71
2022/01/28 13:36:09;;;;;;;31.73;16.13;;;20.40;27.70;;;;;;5022784;28;20132;-71
2022/01/28 13:38:39;;;;;;;36.53;17.52;;;22.40;25.00;;;;;;4994704;28;20069;-73
2022/01/28 13:41:25;;;;;;;21.23;11.10;;;24.20;23.40;;;;;;4993611;28;20038;-71
2022/01/28 13:43:53;;;;;;;25.23;12.95;;;24.70;22.40;;;;;;5009126;28;20048;-73
2022/01/28 13:46:20;;;;;;;31.42;16.23;;;23.40;23.20;;;;;;4994340;28;20376;-72
2022/01/28 13:48:47;;;;;;;;;;;22.40;24.70;;;;;;5007186;28;20434;-73
2022/01/28 13:51:34;;;;;;;26.80;13.88;;;22.00;25.90;;;;;;5011208;28;20007;-72
2022/01/28 13:56:48;;;;;;;27.98;15.70;;;20.40;25.50;;;;;;5027810;28;20042;-71
2022/01/28 13:59:20;;;;;;;27.35;15.15;;;19.00;27.20;;;;;;5013917;28;20033;-73
2022/01/28 14:01:49;;;;;;;37.80;18.60;;;19.20;28.00;;;;;;5018587;28;20041;-71
2022/01/28 14:04:52;;;;;;;28.45;15.45;;;21.70;25.30;;;;;;5023926;28;20033;-73
2022/01/28 14:07:39;;;;;;;28.70;16.40;;;23.50;23.20;;;;;;5024776;28;20044;-73
2022/01/28 14:10:15;;;;;;;45.17;24.65;;;25.50;21.30;;;;;;5015513;28;20037;-73
2022/01/28 14:12:48;;;;;;;29.05;16.15;;;26.40;19.90;;;;;;4992970;28;20042;-72
2022/01/28 14:15:43;;;;;;;25.95;12.95;;;26.90;19.60;;;;;;4993144;28;20030;-73
2022/01/28 14:18:09;;;;;;;17.38;9.13;;;26.80;18.70;;;;;;4993347;28;22594;-73
2022/01/28 14:20:35;;;;;;;;;;;26.80;18.60;;;;;;5011208;28;20042;-72
2022/01/28 14:23:01;;;;;;;25.03;14.13;;;26.60;20.10;;;;;;5007182;28;24292;-72
2022/01/28 14:25:28;;;;;;;40.17;18.55;;;25.90;19.60;;;;;;5009632;28;20448;-72
2022/01/28 14:30:55;;;;;;;29.08;13.18;;;25.00;20.50;;;;;;4993379;28;20067;-72
2022/01/28 14:33:21;;;;;;;34.08;17.38;;;24.30;21.60;;;;;;4993642;28;20073;-73
2022/01/28 14:35:47;;;;;;;27.00;13.60;;;23.70;22.30;;;;;;4997731;28;20034;-72
2022/01/28 14:38:13;;;;;;;76.70;40.17;;;22.90;22.10;;;;;;5005979;28;20037;-71
2022/01/28 14:40:39;;;;;;;;;;;22.00;23.50;;;;;;4993976;28;20486;-72
2022/01/28 14:43:06;;;;;;;;;;;21.20;24.40;;;;;;5000254;28;19928;-72
2022/01/28 14:45:32;;;;;;;;;;;20.40;25.90;;;;;;4991712;28;19924;-72